KDNL

Daniel Field Airport

Augusta, Georgia, USA
METAR KDNL 230053Z AUTO 06003KT 10SM CLR 17/08 A3025 RMK AO2 SLP243 T01670078
Observed Flight Rules
Oct-23 @ 00:53 UTC (8 minutes ago) Visual Flight Rules
Wind Visibility Clouds
60° at 3 knots 10 miles
  • Clear skies
Temperatures Readings
Current 17°C / 63°F
Dewpoint 8°C / 46°F
Humidity 56%
Altimeter 30.25" Hg
Pressure 1024.3 hPa
Elevation 130
METAR KDNL 230053Z AUTO 06003KT 10SM CLR 17/08 A3025 RMK AO2 SLP243 T01670078
Observed Flight Rules
Oct-23 @ 00:53 UTC
(8 minutes ago)
VFR
Wind Visibility
60° at 3 knots 10 miles
Clouds
  • Clear skies
Temperature Dewpoint
17°C / 63°F 8°C / 46°F
Humidity Altimeter Pressure
56% 30.25" Hg 1024.3 hPa